sensor_id;sensor_type;location;lat;lon;timestamp;temperature;humidity
18207;DHT22;9229;52.354;20.886;2023-12-20T00:02:01;6.20;99.90
18207;DHT22;9229;52.354;20.886;2023-12-20T00:07:04;6.20;99.90
18207;DHT22;9229;52.354;20.886;2023-12-20T00:12:06;6.20;99.90
18207;DHT22;9229;52.354;20.886;2023-12-20T00:17:09;6.20;99.90
18207;DHT22;9229;52.354;20.886;2023-12-20T00:22:12;6.20;99.90
18207;DHT22;9229;52.354;20.886;2023-12-20T00:27:13;6.30;99.90
18207;DHT22;9229;52.354;20.886;2023-12-20T00:32:17;6.30;99.90
18207;DHT22;9229;52.354;20.886;2023-12-20T00:37:20;6.30;99.90
18207;DHT22;9229;52.354;20.886;2023-12-20T00:42:22;6.30;99.90
18207;DHT22;9229;52.354;20.886;2023-12-20T00:47:25;6.30;99.90
18207;DHT22;9229;52.354;20.886;2023-12-20T00:52:27;6.30;99.90
18207;DHT22;9229;52.354;20.886;2023-12-20T00:57:29;6.20;99.90
18207;DHT22;9229;52.354;20.886;2023-12-20T01:02:33;6.30;99.90
18207;DHT22;9229;52.354;20.886;2023-12-20T01:07:35;6.30;99.90
18207;DHT22;9229;52.354;20.886;2023-12-20T01:12:37;6.30;99.90
18207;DHT22;9229;52.354;20.886;2023-12-20T01:17:40;6.30;99.90
18207;DHT22;9229;52.354;20.886;2023-12-20T01:22:42;6.30;99.90
18207;DHT22;9229;52.354;20.886;2023-12-20T01:27:46;6.30;99.90
18207;DHT22;9229;52.354;20.886;2023-12-20T01:32:50;6.30;99.90
18207;DHT22;9229;52.354;20.886;2023-12-20T01:37:53;6.30;99.90
18207;DHT22;9229;52.354;20.886;2023-12-20T01:43:00;6.30;99.90
18207;DHT22;9229;52.354;20.886;2023-12-20T01:48:06;6.30;99.90
18207;DHT22;9229;52.354;20.886;2023-12-20T01:53:10;6.30;99.90
18207;DHT22;9229;52.354;20.886;2023-12-20T01:58:15;6.30;99.90
18207;DHT22;9229;52.354;20.886;2023-12-20T02:03:18;6.30;99.90
18207;DHT22;9229;52.354;20.886;2023-12-20T02:08:20;6.30;99.90
18207;DHT22;9229;52.354;20.886;2023-12-20T02:13:22;6.30;99.90
18207;DHT22;9229;52.354;20.886;2023-12-20T02:18:26;6.30;99.90
18207;DHT22;9229;52.354;20.886;2023-12-20T02:23:29;6.20;99.90
18207;DHT22;9229;52.354;20.886;2023-12-20T02:28:32;6.30;99.90
18207;DHT22;9229;52.354;20.886;2023-12-20T02:33:34;6.30;99.90
18207;DHT22;9229;52.354;20.886;2023-12-20T02:38:37;6.30;99.90
18207;DHT22;9229;52.354;20.886;2023-12-20T02:43:39;6.20;99.90
18207;DHT22;9229;52.354;20.886;2023-12-20T02:48:42;6.30;99.90
18207;DHT22;9229;52.354;20.886;2023-12-20T02:53:45;6.20;99.90
18207;DHT22;9229;52.354;20.886;2023-12-20T02:58:47;6.20;99.90
18207;DHT22;9229;52.354;20.886;2023-12-20T03:03:49;6.20;99.90
18207;DHT22;9229;52.354;20.886;2023-12-20T03:08:53;6.30;99.90
18207;DHT22;9229;52.354;20.886;2023-12-20T03:13:55;6.20;99.90
18207;DHT22;9229;52.354;20.886;2023-12-20T03:18:58;6.20;99.90
18207;DHT22;9229;52.354;20.886;2023-12-20T03:24:02;6.20;99.90
18207;DHT22;9229;52.354;20.886;2023-12-20T03:29:04;6.20;99.90
18207;DHT22;9229;52.354;20.886;2023-12-20T03:34:06;6.20;99.90
18207;DHT22;9229;52.354;20.886;2023-12-20T03:39:09;6.20;99.90
18207;DHT22;9229;52.354;20.886;2023-12-20T03:44:12;6.30;99.90
18207;DHT22;9229;52.354;20.886;2023-12-20T03:49:15;6.20;99.90
18207;DHT22;9229;52.354;20.886;2023-12-20T03:54:19;6.20;99.90
18207;DHT22;9229;52.354;20.886;2023-12-20T03:59:21;6.20;99.90
18207;DHT22;9229;52.354;20.886;2023-12-20T04:04:24;6.20;99.90
18207;DHT22;9229;52.354;20.886;2023-12-20T04:09:27;6.20;99.90
18207;DHT22;9229;52.354;20.886;2023-12-20T04:14:29;6.20;99.90
18207;DHT22;9229;52.354;20.886;2023-12-20T04:19:31;6.20;99.90
18207;DHT22;9229;52.354;20.886;2023-12-20T04:24:34;6.20;99.90
18207;DHT22;9229;52.354;20.886;2023-12-20T04:29:37;6.20;99.90
18207;DHT22;9229;52.354;20.886;2023-12-20T04:34:39;6.20;99.90
18207;DHT22;9229;52.354;20.886;2023-12-20T04:39:43;6.10;99.90
18207;DHT22;9229;52.354;20.886;2023-12-20T04:44:45;6.10;99.90
18207;DHT22;9229;52.354;20.886;2023-12-20T04:49:47;6.20;99.90
18207;DHT22;9229;52.354;20.886;2023-12-20T04:54:51;6.10;99.90
18207;DHT22;9229;52.354;20.886;2023-12-20T04:59:53;6.10;99.90
18207;DHT22;9229;52.354;20.886;2023-12-20T05:04:55;6.10;99.90
18207;DHT22;9229;52.354;20.886;2023-12-20T05:09:59;6.10;99.90
18207;DHT22;9229;52.354;20.886;2023-12-20T05:15:01;6.10;99.90
18207;DHT22;9229;52.354;20.886;2023-12-20T05:20:04;6.10;99.90
18207;DHT22;9229;52.354;20.886;2023-12-20T05:25:08;6.10;99.90
18207;DHT22;9229;52.354;20.886;2023-12-20T05:30:11;6.10;99.90
18207;DHT22;9229;52.354;20.886;2023-12-20T05:35:13;6.10;99.90
18207;DHT22;9229;52.354;20.886;2023-12-20T05:40:17;6.10;99.90
18207;DHT22;9229;52.354;20.886;2023-12-20T05:45:19;6.10;99.90
18207;DHT22;9229;52.354;20.886;2023-12-20T05:50:21;6.10;99.90
18207;DHT22;9229;52.354;20.886;2023-12-20T05:55:25;6.00;99.90
18207;DHT22;9229;52.354;20.886;2023-12-20T06:00:27;6.00;99.90
18207;DHT22;9229;52.354;20.886;2023-12-20T06:05:29;6.10;99.90
18207;DHT22;9229;52.354;20.886;2023-12-20T06:10:33;6.10;99.90
18207;DHT22;9229;52.354;20.886;2023-12-20T06:15:35;6.00;99.90
18207;DHT22;9229;52.354;20.886;2023-12-20T06:20:37;6.00;99.90
18207;DHT22;9229;52.354;20.886;2023-12-20T06:25:40;6.00;99.90
18207;DHT22;9229;52.354;20.886;2023-12-20T06:30:43;6.00;99.90
18207;DHT22;9229;52.354;20.886;2023-12-20T06:35:46;5.90;99.90
18207;DHT22;9229;52.354;20.886;2023-12-20T06:40:49;6.00;99.90
18207;DHT22;9229;52.354;20.886;2023-12-20T06:45:51;6.00;99.90
18207;DHT22;9229;52.354;20.886;2023-12-20T06:50:53;6.00;99.90
18207;DHT22;9229;52.354;20.886;2023-12-20T06:55:57;6.00;99.90
18207;DHT22;9229;52.354;20.886;2023-12-20T07:00:59;6.30;99.90
18207;DHT22;9229;52.354;20.886;2023-12-20T07:06:01;6.00;99.90
18207;DHT22;9229;52.354;20.886;2023-12-20T07:11:05;6.00;99.90
18207;DHT22;9229;52.354;20.886;2023-12-20T07:16:07;6.00;99.90
18207;DHT22;9229;52.354;20.886;2023-12-20T07:21:09;6.10;99.90
18207;DHT22;9229;52.354;20.886;2023-12-20T07:26:18;6.10;99.90
18207;DHT22;9229;52.354;20.886;2023-12-20T07:31:21;6.10;99.90
18207;DHT22;9229;52.354;20.886;2023-12-20T07:36:24;6.10;99.90
18207;DHT22;9229;52.354;20.886;2023-12-20T07:41:28;6.10;99.90
18207;DHT22;9229;52.354;20.886;2023-12-20T07:46:30;6.20;99.90
18207;DHT22;9229;52.354;20.886;2023-12-20T07:51:32;6.20;99.90
18207;DHT22;9229;52.354;20.886;2023-12-20T07:56:35;6.20;99.90
18207;DHT22;9229;52.354;20.886;2023-12-20T08:01:37;6.20;99.90
18207;DHT22;9229;52.354;20.886;2023-12-20T08:06:39;6.30;99.90
18207;DHT22;9229;52.354;20.886;2023-12-20T08:11:46;6.30;99.90
18207;DHT22;9229;52.354;20.886;2023-12-20T08:16:51;6.30;99.90
18207;DHT22;9229;52.354;20.886;2023-12-20T08:21:56;6.30;99.90
18207;DHT22;9229;52.354;20.886;2023-12-20T08:27:02;6.30;99.90
18207;DHT22;9229;52.354;20.886;2023-12-20T08:32:06;6.40;99.90
18207;DHT22;9229;52.354;20.886;2023-12-20T08:37:09;6.40;99.90
18207;DHT22;9229;52.354;20.886;2023-12-20T08:42:12;6.50;99.90
18207;DHT22;9229;52.354;20.886;2023-12-20T08:47:14;6.40;99.90
18207;DHT22;9229;52.354;20.886;2023-12-20T08:52:28;6.50;99.90
18207;DHT22;9229;52.354;20.886;2023-12-20T08:57:48;6.60;99.90
18207;DHT22;9229;52.354;20.886;2023-12-20T09:03:00;7.70;99.90
18207;DHT22;9229;52.354;20.886;2023-12-20T09:19:48;7.00;99.90
18207;DHT22;9229;52.354;20.886;2023-12-20T09:43:17;6.50;99.90
18207;DHT22;9229;52.354;20.886;2023-12-20T09:55:31;6.60;99.90
18207;DHT22;9229;52.354;20.886;2023-12-20T10:01:15;6.20;99.90
18207;DHT22;9229;52.354;20.886;2023-12-20T10:31:39;6.50;99.90
18207;DHT22;9229;52.354;20.886;2023-12-20T10:37:19;6.50;99.90
18207;DHT22;9229;52.354;20.886;2023-12-20T10:42:47;6.50;99.90
18207;DHT22;9229;52.354;20.886;2023-12-20T10:48:32;7.00;99.90
18207;DHT22;9229;52.354;20.886;2023-12-20T10:54:00;6.50;99.90
18207;DHT22;9229;52.354;20.886;2023-12-20T10:59:24;6.50;99.90
18207;DHT22;9229;52.354;20.886;2023-12-20T11:04:53;6.50;99.90
18207;DHT22;9229;52.354;20.886;2023-12-20T11:17:19;6.90;99.90
18207;DHT22;9229;52.354;20.886;2023-12-20T11:22:31;6.50;99.90
18207;DHT22;9229;52.354;20.886;2023-12-20T11:27:35;6.60;99.90
18207;DHT22;9229;52.354;20.886;2023-12-20T11:32:40;6.60;99.90
18207;DHT22;9229;52.354;20.886;2023-12-20T11:37:45;6.50;99.90
18207;DHT22;9229;52.354;20.886;2023-12-20T11:42:55;6.50;99.90
18207;DHT22;9229;52.354;20.886;2023-12-20T11:48:03;6.60;99.90
18207;DHT22;9229;52.354;20.886;2023-12-20T11:53:05;6.70;99.90
18207;DHT22;9229;52.354;20.886;2023-12-20T11:58:09;6.70;99.90
18207;DHT22;9229;52.354;20.886;2023-12-20T12:03:27;6.70;99.90
18207;DHT22;9229;52.354;20.886;2023-12-20T12:08:33;6.70;99.90
18207;DHT22;9229;52.354;20.886;2023-12-20T12:13:41;6.60;99.90
18207;DHT22;9229;52.354;20.886;2023-12-20T13:31:19;6.30;99.90
18207;DHT22;9229;52.354;20.886;2023-12-20T13:37:07;6.10;99.90
18207;DHT22;9229;52.354;20.886;2023-12-20T13:42:13;6.00;99.90
18207;DHT22;9229;52.354;20.886;2023-12-20T13:47:21;5.80;99.90
18207;DHT22;9229;52.354;20.886;2023-12-20T13:52:28;6.10;99.90
18207;DHT22;9229;52.354;20.886;2023-12-20T13:57:54;5.90;99.90
18207;DHT22;9229;52.354;20.886;2023-12-20T14:03:41;6.00;99.90
18207;DHT22;9229;52.354;20.886;2023-12-20T14:09:39;5.60;99.90
18207;DHT22;9229;52.354;20.886;2023-12-20T14:14:56;5.80;99.90
18207;DHT22;9229;52.354;20.886;2023-12-20T14:20:19;6.10;99.90
18207;DHT22;9229;52.354;20.886;2023-12-20T14:25:56;5.70;99.90
18207;DHT22;9229;52.354;20.886;2023-12-20T14:31:22;5.60;99.90
18207;DHT22;9229;52.354;20.886;2023-12-20T14:36:28;5.60;99.90
18207;DHT22;9229;52.354;20.886;2023-12-20T14:42:03;5.60;99.90
18207;DHT22;9229;52.354;20.886;2023-12-20T14:47:28;5.60;99.90
18207;DHT22;9229;52.354;20.886;2023-12-20T15:17:47;5.50;99.90
18207;DHT22;9229;52.354;20.886;2023-12-20T15:29:05;5.10;99.90
18207;DHT22;9229;52.354;20.886;2023-12-20T15:40:40;5.10;99.90
18207;DHT22;9229;52.354;20.886;2023-12-20T16:11:31;5.10;99.90
18207;DHT22;9229;52.354;20.886;2023-12-20T16:22:49;5.10;99.90
18207;DHT22;9229;52.354;20.886;2023-12-20T16:28:33;4.90;99.90
18207;DHT22;9229;52.354;20.886;2023-12-20T16:34:03;5.90;99.90
18207;DHT22;9229;52.354;20.886;2023-12-20T16:39:31;5.10;99.90
18207;DHT22;9229;52.354;20.886;2023-12-20T16:45:03;5.50;99.90
18207;DHT22;9229;52.354;20.886;2023-12-20T16:50:08;5.10;99.90
18207;DHT22;9229;52.354;20.886;2023-12-20T16:55:16;4.80;99.90
18207;DHT22;9229;52.354;20.886;2023-12-20T17:00:25;4.70;99.90
18207;DHT22;9229;52.354;20.886;2023-12-20T17:05:52;5.70;99.90
18207;DHT22;9229;52.354;20.886;2023-12-20T17:11:10;5.20;99.90
18207;DHT22;9229;52.354;20.886;2023-12-20T17:16:29;5.50;99.90
18207;DHT22;9229;52.354;20.886;2023-12-20T17:21:36;5.40;99.90
18207;DHT22;9229;52.354;20.886;2023-12-20T17:26:51;5.20;99.90
18207;DHT22;9229;52.354;20.886;2023-12-20T17:31:57;4.80;99.90
18207;DHT22;9229;52.354;20.886;2023-12-20T17:37:11;5.40;99.90
18207;DHT22;9229;52.354;20.886;2023-12-20T17:42:33;5.20;99.90
18207;DHT22;9229;52.354;20.886;2023-12-20T17:47:41;4.90;99.90
18207;DHT22;9229;52.354;20.886;2023-12-20T17:53:04;6.20;99.90
18207;DHT22;9229;52.354;20.886;2023-12-20T17:58:18;4.80;99.90
18207;DHT22;9229;52.354;20.886;2023-12-20T18:03:41;5.80;99.90
18207;DHT22;9229;52.354;20.886;2023-12-20T18:08:50;6.10;99.90
18207;DHT22;9229;52.354;20.886;2023-12-20T18:20:31;5.10;99.90
18207;DHT22;9229;52.354;20.886;2023-12-20T18:32:43;5.00;99.90
18207;DHT22;9229;52.354;20.886;2023-12-20T18:57:05;4.90;99.90
18207;DHT22;9229;52.354;20.886;2023-12-20T19:02:48;4.90;99.90
18207;DHT22;9229;52.354;20.886;2023-12-20T19:07:54;4.90;99.90
18207;DHT22;9229;52.354;20.886;2023-12-20T19:13:15;4.90;99.90
18207;DHT22;9229;52.354;20.886;2023-12-20T19:18:18;4.90;99.90
18207;DHT22;9229;52.354;20.886;2023-12-20T19:23:24;5.20;99.90
18207;DHT22;9229;52.354;20.886;2023-12-20T19:28:33;4.90;99.90
18207;DHT22;9229;52.354;20.886;2023-12-20T19:33:37;4.90;99.90
18207;DHT22;9229;52.354;20.886;2023-12-20T19:38:40;4.80;99.90
18207;DHT22;9229;52.354;20.886;2023-12-20T19:43:48;4.80;99.90
18207;DHT22;9229;52.354;20.886;2023-12-20T19:48:50;4.80;99.90
18207;DHT22;9229;52.354;20.886;2023-12-20T19:53:53;4.70;99.90
18207;DHT22;9229;52.354;20.886;2023-12-20T19:58:57;4.60;99.90
18207;DHT22;9229;52.354;20.886;2023-12-20T20:04:05;4.80;99.90
18207;DHT22;9229;52.354;20.886;2023-12-20T20:09:07;4.50;99.90
18207;DHT22;9229;52.354;20.886;2023-12-20T20:14:12;4.50;99.90
18207;DHT22;9229;52.354;20.886;2023-12-20T20:19:14;4.40;99.90
18207;DHT22;9229;52.354;20.886;2023-12-20T20:24:16;4.40;99.90
18207;DHT22;9229;52.354;20.886;2023-12-20T20:29:21;4.30;99.90
18207;DHT22;9229;52.354;20.886;2023-12-20T20:34:42;4.30;99.90
18207;DHT22;9229;52.354;20.886;2023-12-20T20:39:46;4.30;99.90
18207;DHT22;9229;52.354;20.886;2023-12-20T20:44:52;4.20;99.90
18207;DHT22;9229;52.354;20.886;2023-12-20T20:49:55;4.00;99.90
18207;DHT22;9229;52.354;20.886;2023-12-20T20:55:12;3.90;99.90
18207;DHT22;9229;52.354;20.886;2023-12-20T21:00:18;3.70;99.90
18207;DHT22;9229;52.354;20.886;2023-12-20T21:05:22;3.70;99.90
18207;DHT22;9229;52.354;20.886;2023-12-20T21:10:24;3.70;99.90
18207;DHT22;9229;52.354;20.886;2023-12-20T21:15:31;3.70;99.90
18207;DHT22;9229;52.354;20.886;2023-12-20T21:20:36;3.90;99.90
18207;DHT22;9229;52.354;20.886;2023-12-20T21:25:39;3.80;99.90
18207;DHT22;9229;52.354;20.886;2023-12-20T21:30:43;3.80;99.90
18207;DHT22;9229;52.354;20.886;2023-12-20T21:35:48;3.80;99.90
18207;DHT22;9229;52.354;20.886;2023-12-20T21:40:50;4.30;99.90
18207;DHT22;9229;52.354;20.886;2023-12-20T21:45:55;3.70;99.90
18207;DHT22;9229;52.354;20.886;2023-12-20T21:51:01;3.80;99.90
18207;DHT22;9229;52.354;20.886;2023-12-20T21:56:06;3.80;99.90
18207;DHT22;9229;52.354;20.886;2023-12-20T22:01:12;3.80;99.90
18207;DHT22;9229;52.354;20.886;2023-12-20T22:06:15;3.80;99.90
18207;DHT22;9229;52.354;20.886;2023-12-20T22:11:18;3.80;99.90
18207;DHT22;9229;52.354;20.886;2023-12-20T22:16:29;3.80;99.90
18207;DHT22;9229;52.354;20.886;2023-12-20T22:21:31;3.90;99.90
18207;DHT22;9229;52.354;20.886;2023-12-20T22:26:35;3.90;99.90
18207;DHT22;9229;52.354;20.886;2023-12-20T22:31:42;4.00;99.90
18207;DHT22;9229;52.354;20.886;2023-12-20T22:36:49;4.00;99.90
18207;DHT22;9229;52.354;20.886;2023-12-20T22:41:52;4.10;99.90
18207;DHT22;9229;52.354;20.886;2023-12-20T22:46:58;4.10;99.90
18207;DHT22;9229;52.354;20.886;2023-12-20T22:52:00;4.10;99.90
18207;DHT22;9229;52.354;20.886;2023-12-20T22:57:03;4.10;99.90
18207;DHT22;9229;52.354;20.886;2023-12-20T23:02:09;4.00;99.90
18207;DHT22;9229;52.354;20.886;2023-12-20T23:07:14;3.90;99.90
18207;DHT22;9229;52.354;20.886;2023-12-20T23:12:21;3.80;99.90
18207;DHT22;9229;52.354;20.886;2023-12-20T23:17:24;3.70;99.90
18207;DHT22;9229;52.354;20.886;2023-12-20T23:22:26;3.80;99.90
18207;DHT22;9229;52.354;20.886;2023-12-20T23:27:31;4.00;99.90
18207;DHT22;9229;52.354;20.886;2023-12-20T23:32:34;3.90;99.90
18207;DHT22;9229;52.354;20.886;2023-12-20T23:37:36;3.90;99.90
18207;DHT22;9229;52.354;20.886;2023-12-20T23:42:38;3.90;99.90
18207;DHT22;9229;52.354;20.886;2023-12-20T23:47:42;4.00;99.90
18207;DHT22;9229;52.354;20.886;2023-12-20T23:52:44;4.00;99.90
18207;DHT22;9229;52.354;20.886;2023-12-20T23:57:49;4.00;99.90
